createdAt,value
2019-04-05T00:00:15.657Z,46.70
2019-04-05T00:02:44.114Z,46.60
2019-04-05T00:05:13.369Z,46.80
2019-04-05T00:07:41.973Z,46.80
2019-04-05T00:10:11.638Z,46.90
2019-04-05T00:12:40.262Z,47.00
2019-04-05T00:15:15.678Z,47.20
2019-04-05T00:17:39.639Z,47.20
2019-04-05T00:20:08.859Z,47.40
2019-04-05T00:22:37.616Z,47.60
2019-04-05T00:25:07.823Z,47.70
2019-04-05T00:27:36.527Z,47.70
2019-04-05T00:30:08.173Z,47.70
2019-04-05T00:32:36.746Z,47.80
2019-04-05T00:35:07.063Z,48.00
2019-04-05T00:37:35.626Z,48.20
2019-04-05T00:40:06.625Z,48.20
2019-04-05T00:42:35.419Z,48.40
2019-04-05T00:45:06.126Z,48.50
2019-04-05T00:47:34.706Z,48.60
2019-04-05T00:50:05.051Z,48.60
2019-04-05T00:52:33.728Z,48.80
2019-04-05T00:55:02.662Z,48.90
2019-04-05T00:57:31.503Z,48.90
2019-04-05T01:00:00.108Z,49.00
2019-04-05T01:02:28.871Z,49.00
2019-04-05T01:04:57.470Z,49.10
2019-04-05T01:07:26.182Z,49.20
2019-04-05T01:09:54.942Z,49.40
2019-04-05T01:12:24.262Z,49.50
2019-04-05T01:14:54.903Z,49.70
2019-04-05T01:17:24.987Z,50.10
2019-04-05T01:19:56.974Z,50.00
2019-04-05T01:22:28.044Z,50.30
2019-04-05T01:24:58.662Z,50.50
2019-04-05T01:27:29.475Z,50.60
2019-04-05T01:29:58.218Z,50.70
2019-04-05T01:32:26.901Z,50.80
2019-04-05T01:34:55.530Z,51.10
2019-04-05T01:37:24.796Z,51.30
2019-04-05T01:39:53.523Z,51.30
2019-04-05T01:42:23.353Z,51.50
2019-04-05T01:44:52.387Z,51.70
2019-04-05T01:47:21.093Z,51.70
2019-04-05T01:49:49.753Z,51.80
2019-04-05T01:52:18.474Z,51.90
2019-04-05T01:54:49.095Z,52.00
2019-04-05T01:57:17.724Z,52.10
2019-04-05T01:59:46.364Z,52.20
2019-04-05T02:02:14.982Z,52.20
2019-04-05T02:04:43.657Z,52.30
2019-04-05T02:07:12.358Z,52.40
2019-04-05T02:09:41.317Z,52.50
2019-04-05T02:12:10.018Z,52.60
2019-04-05T02:14:38.760Z,52.80
2019-04-05T02:17:07.449Z,52.90
2019-04-05T02:19:36.179Z,52.90
2019-04-05T02:22:04.925Z,53.10
2019-04-05T02:24:33.599Z,53.10
2019-04-05T02:27:02.299Z,53.20
2019-04-05T02:29:32.145Z,53.40
2019-04-05T02:32:00.964Z,53.40
2019-04-05T02:34:29.602Z,53.50
2019-04-05T02:36:58.347Z,53.60
2019-04-05T02:39:27.197Z,53.60
2019-04-05T02:41:57.409Z,53.60
2019-04-05T02:44:26.785Z,54.00
2019-04-05T02:46:56.126Z,53.80
2019-04-05T02:49:27.838Z,53.90
2019-04-05T02:51:58.152Z,54.00
2019-04-05T02:54:27.872Z,54.00
2019-04-05T02:56:57.460Z,54.20
2019-04-05T02:59:26.958Z,54.30
2019-04-05T03:01:56.068Z,54.50
2019-04-05T03:04:25.556Z,54.40
2019-04-05T03:06:54.231Z,54.70
2019-04-05T03:09:23.677Z,54.60
2019-04-05T03:11:53.092Z,54.70
2019-04-05T03:14:22.099Z,55.10
2019-04-05T03:16:53.791Z,55.10
2019-04-05T03:19:25.543Z,55.20
2019-04-05T03:21:57.212Z,55.40
2019-04-05T03:24:28.871Z,55.70
2019-04-05T03:27:03.502Z,55.70
2019-04-05T03:29:32.797Z,55.80
2019-04-05T03:32:01.941Z,55.90
2019-04-05T03:34:31.427Z,56.00
2019-04-05T03:37:01.205Z,56.00
2019-04-05T03:39:30.918Z,56.10
2019-04-05T03:41:59.638Z,56.10
2019-04-05T03:44:28.748Z,56.10
2019-04-05T03:46:58.054Z,56.20
2019-04-05T03:49:26.990Z,56.20
2019-04-05T03:51:55.769Z,56.20
2019-04-05T03:54:24.996Z,56.20
2019-04-05T03:56:53.792Z,56.20
2019-04-05T03:59:22.732Z,56.30
2019-04-05T04:01:52.447Z,56.30
2019-04-05T04:04:21.443Z,56.20
2019-04-05T04:06:50.147Z,56.30
2019-04-05T04:09:19.285Z,56.30
2019-04-05T04:11:48.881Z,56.30
2019-04-05T04:14:17.879Z,56.20
2019-04-05T04:16:47.891Z,56.10
2019-04-05T04:19:16.622Z,56.10
2019-04-05T04:22:00.302Z,56.10
2019-04-05T04:24:29.337Z,56.10
2019-04-05T04:26:58.172Z,56.20
2019-04-05T04:29:27.256Z,56.20
2019-04-05T04:31:56.310Z,56.30
2019-04-05T04:34:25.145Z,56.20
2019-04-05T04:36:53.988Z,56.20
2019-04-05T04:39:22.999Z,56.30
2019-04-05T04:41:52.510Z,56.00
2019-04-05T04:44:21.510Z,55.90
2019-04-05T04:46:51.461Z,55.90
2019-04-05T04:49:20.680Z,55.80
2019-04-05T04:51:50.233Z,55.70
2019-04-05T04:54:19.540Z,55.70
2019-04-05T04:56:48.311Z,55.60
2019-04-05T04:59:17.347Z,55.50
2019-04-05T05:01:46.450Z,55.50
2019-04-05T05:04:15.302Z,55.20
2019-04-05T05:06:43.987Z,54.90
2019-04-05T05:09:12.822Z,55.00
2019-04-05T05:11:41.886Z,54.70
2019-04-05T05:14:11.602Z,54.30
2019-04-05T05:16:40.693Z,54.20
2019-04-05T05:19:09.589Z,54.00
2019-04-05T05:21:38.515Z,53.30
2019-04-05T05:24:07.458Z,53.00
2019-04-05T05:26:36.879Z,52.70
2019-04-05T05:29:05.923Z,52.60
2019-04-05T05:31:35.255Z,52.40
2019-04-05T05:34:04.638Z,52.20
2019-04-05T05:36:33.422Z,52.00
2019-04-05T05:39:03.073Z,51.70
2019-04-05T05:41:32.039Z,51.50
2019-04-05T05:44:01.079Z,51.30
2019-04-05T05:46:35.404Z,50.90
2019-04-05T05:49:04.170Z,50.70
2019-04-05T05:51:33.771Z,50.60
2019-04-05T05:54:02.500Z,50.30
2019-04-05T05:56:31.515Z,49.90
2019-04-05T05:59:00.529Z,49.60
2019-04-05T06:01:29.781Z,49.70
2019-04-05T06:03:58.483Z,49.70
2019-04-05T06:06:27.472Z,49.10
2019-04-05T06:08:56.474Z,48.90
2019-04-05T06:11:25.483Z,48.70
2019-04-05T06:13:54.254Z,48.50
2019-04-05T06:16:23.323Z,48.70
2019-04-05T06:18:51.923Z,48.40
2019-04-05T06:21:20.585Z,48.10
2019-04-05T06:23:49.218Z,47.20
2019-04-05T06:26:18.187Z,47.20
2019-04-05T06:28:47.083Z,47.00
2019-04-05T06:31:15.666Z,47.00
2019-04-05T06:33:44.534Z,46.70
2019-04-05T06:36:14.690Z,46.30
2019-04-05T06:38:43.738Z,46.10
2019-04-05T06:41:12.745Z,45.90
2019-04-05T06:43:41.294Z,45.40
2019-04-05T06:46:09.974Z,45.10
2019-04-05T06:48:38.539Z,44.80
2019-04-05T06:51:07.442Z,44.80
2019-04-05T06:53:36.099Z,44.40
2019-04-05T06:56:05.223Z,44.20
2019-04-05T06:58:34.111Z,44.00
2019-04-05T07:01:02.877Z,44.00
2019-04-05T07:03:31.581Z,43.70
2019-04-05T07:06:00.483Z,43.10
2019-04-05T07:08:29.308Z,43.10
2019-04-05T07:10:57.974Z,43.20
2019-04-05T07:13:27.592Z,43.20
2019-04-05T07:15:56.613Z,42.80
2019-04-05T07:18:33.934Z,42.60
2019-04-05T07:20:57.726Z,42.10
2019-04-05T07:23:25.808Z,41.30
2019-04-05T07:25:54.370Z,41.70
2019-04-05T07:28:25.063Z,41.40
2019-04-05T07:30:53.374Z,40.80
2019-04-05T07:33:23.552Z,41.00
2019-04-05T07:35:52.143Z,40.40
2019-04-05T07:38:20.705Z,39.70
2019-04-05T07:40:49.459Z,39.90
2019-04-05T07:43:18.222Z,39.00
2019-04-05T07:45:46.833Z,39.30
2019-04-05T07:48:15.535Z,38.00
2019-04-05T07:50:44.670Z,39.00
2019-04-05T07:53:13.340Z,37.40
2019-04-05T07:55:43.042Z,37.30
2019-04-05T07:58:11.614Z,37.10
2019-04-05T08:00:52.407Z,36.60
2019-04-05T08:03:22.943Z,36.40
2019-04-05T08:05:52.852Z,35.50
2019-04-05T08:08:48.462Z,35.70
2019-04-05T08:11:17.706Z,35.70
2019-04-05T08:13:48.016Z,34.50
2019-04-05T08:16:17.075Z,34.40
2019-04-05T08:18:57.074Z,33.80
2019-04-05T08:21:15.974Z,33.60
2019-04-05T08:23:44.723Z,32.70
2019-04-05T08:26:13.427Z,32.30
2019-04-05T08:28:42.346Z,31.00
2019-04-05T08:31:14.364Z,31.60
2019-04-05T08:33:42.756Z,31.10
2019-04-05T08:36:11.423Z,30.00
2019-04-05T08:38:40.158Z,30.20
2019-04-05T08:41:08.778Z,30.30
2019-04-05T08:43:37.413Z,30.40
2019-04-05T08:46:06.148Z,30.10
2019-04-05T08:48:34.983Z,30.90
2019-04-05T08:51:04.077Z,29.80
2019-04-05T08:53:32.674Z,28.80
2019-04-05T08:56:01.539Z,28.60
2019-04-05T08:58:33.490Z,28.40
2019-04-05T09:01:00.607Z,28.50
2019-04-05T09:03:29.193Z,27.40
2019-04-05T09:05:58.118Z,27.60
2019-04-05T09:08:27.152Z,26.70
2019-04-05T09:10:55.698Z,24.30
2019-04-05T09:13:24.277Z,23.30
2019-04-05T09:15:52.895Z,22.20
2019-04-05T09:18:21.842Z,20.90
2019-04-05T09:20:50.476Z,19.90
2019-04-05T09:23:19.201Z,18.90
2019-04-05T09:25:47.843Z,19.10
2019-04-05T09:28:16.521Z,19.20
2019-04-05T09:30:45.335Z,18.40
2019-04-05T09:33:14.252Z,17.50
2019-04-05T09:35:42.831Z,17.30
2019-04-05T09:38:11.614Z,16.90
2019-04-05T09:40:40.466Z,15.90
2019-04-05T09:43:09.290Z,15.00
2019-04-05T09:45:38.160Z,15.10
2019-04-05T09:48:06.894Z,14.10
2019-04-05T09:50:35.623Z,14.40
2019-04-05T09:53:04.330Z,14.70
2019-04-05T09:55:33.018Z,14.60
2019-04-05T09:58:01.696Z,13.60
2019-04-05T10:00:31.506Z,13.40
2019-04-05T10:03:00.188Z,13.80
2019-04-05T10:05:29.047Z,13.90
2019-04-05T10:07:57.709Z,13.50
2019-04-05T10:10:26.378Z,13.50
2019-04-05T10:12:55.028Z,12.60
2019-04-05T10:15:25.560Z,12.10
2019-04-05T10:17:53.997Z,11.70
2019-04-05T10:20:22.638Z,11.70
2019-04-05T10:22:51.436Z,11.30
2019-04-05T10:25:20.128Z,11.60
2019-04-05T10:27:48.842Z,11.70
2019-04-05T10:30:19.273Z,11.80
2019-04-05T10:32:47.891Z,11.40
2019-04-05T10:35:16.543Z,11.50
2019-04-05T10:37:45.270Z,10.90
2019-04-05T10:40:14.545Z,11.00
2019-04-05T10:42:43.406Z,11.20
2019-04-05T10:45:13.740Z,11.60
2019-04-05T10:47:42.482Z,11.60
2019-04-05T10:50:14.511Z,11.60
2019-04-05T10:52:43.252Z,12.20
2019-04-05T10:55:12.355Z,11.70
2019-04-05T10:57:41.057Z,10.80
2019-04-05T11:00:16.161Z,11.50
2019-04-05T11:02:44.885Z,11.00
2019-04-05T11:05:14.543Z,10.00
2019-04-05T11:07:43.211Z,9.70
2019-04-05T11:10:12.411Z,9.70
2019-04-05T11:12:41.199Z,9.50
2019-04-05T11:15:10.791Z,9.50
2019-04-05T11:17:41.448Z,9.50
2019-04-05T11:20:22.203Z,9.40
2019-04-05T11:22:46.732Z,9.40
2019-04-05T11:25:16.337Z,8.90
2019-04-05T11:27:45.335Z,8.40
2019-04-05T11:30:14.720Z,8.80
2019-04-05T11:32:43.615Z,9.10
2019-04-05T11:35:15.119Z,8.60
2019-04-05T11:37:44.563Z,8.90
2019-04-05T11:40:14.080Z,9.00
2019-04-05T11:42:44.951Z,8.60
2019-04-05T11:45:13.774Z,8.40
2019-04-05T11:47:43.955Z,7.50
2019-04-05T11:50:14.059Z,7.60
2019-04-05T11:52:42.766Z,7.70
2019-04-05T11:55:12.426Z,7.90
2019-04-05T11:57:41.925Z,7.70
2019-04-05T12:00:25.428Z,7.70
2019-04-05T12:02:55.745Z,7.70
2019-04-05T12:05:26.906Z,7.80
2019-04-05T12:07:58.616Z,8.60
2019-04-05T12:10:25.293Z,8.70
2019-04-05T12:12:54.199Z,9.00
2019-04-05T12:15:22.818Z,7.90
2019-04-05T12:17:51.402Z,8.00
2019-04-05T12:20:20.555Z,8.20
2019-04-05T12:22:52.256Z,8.60
2019-04-05T12:25:19.665Z,7.70
2019-04-05T12:27:48.611Z,7.70
2019-04-05T12:30:19.758Z,7.70
2019-04-05T12:32:48.901Z,7.40
2019-04-05T12:35:21.380Z,6.90
2019-04-05T12:37:50.458Z,6.80
2019-04-05T12:40:19.156Z,7.20
2019-04-05T12:42:47.916Z,7.10
2019-04-05T12:45:16.798Z,7.70
2019-04-05T12:47:46.106Z,8.10
2019-04-05T12:50:15.535Z,7.60
2019-04-05T12:52:44.159Z,7.10
2019-04-05T12:55:13.291Z,7.50
2019-04-05T12:57:42.163Z,8.00
2019-04-05T13:00:14.714Z,7.80
2019-04-05T13:02:44.054Z,7.80
2019-04-05T13:05:13.311Z,8.30
2019-04-05T13:07:42.023Z,7.90
2019-04-05T13:10:11.242Z,7.50
2019-04-05T13:12:40.052Z,7.40
2019-04-05T13:15:15.349Z,7.50
2019-04-05T13:17:42.081Z,7.40
2019-04-05T13:20:12.016Z,7.70
2019-04-05T13:22:40.659Z,8.20
2019-04-05T13:25:11.093Z,8.50
2019-04-05T13:27:41.512Z,8.00
2019-04-05T13:30:10.418Z,8.30
2019-04-05T13:32:39.092Z,8.20
2019-04-05T13:35:08.080Z,8.10
2019-04-05T13:37:36.765Z,8.30
2019-04-05T13:40:07.414Z,8.30
2019-04-05T13:42:36.169Z,8.30
2019-04-05T13:45:07.275Z,7.90
2019-04-05T13:47:38.859Z,8.00
2019-04-05T13:50:10.841Z,7.40
2019-04-05T13:52:41.483Z,7.70
2019-04-05T13:55:10.435Z,7.60
2019-04-05T13:57:40.884Z,8.00
2019-04-05T14:00:10.760Z,8.10
2019-04-05T14:02:39.523Z,8.40
2019-04-05T14:05:08.776Z,8.60
2019-04-05T14:07:37.451Z,8.50
2019-04-05T14:10:12.347Z,8.60
2019-04-05T14:12:40.301Z,8.80
2019-04-05T14:15:11.363Z,8.70
2019-04-05T14:17:44.027Z,8.60
2019-04-05T14:20:11.545Z,8.30
2019-04-05T14:22:40.411Z,8.00
2019-04-05T14:25:10.490Z,8.30
2019-04-05T14:27:40.612Z,8.50
2019-04-05T14:30:10.033Z,8.60
2019-04-05T14:32:39.303Z,9.20
2019-04-05T14:35:09.101Z,9.50
2019-04-05T14:37:38.049Z,9.30
2019-04-05T14:40:07.878Z,8.90
2019-04-05T14:42:36.707Z,8.90
2019-04-05T14:45:07.667Z,9.00
2019-04-05T14:47:36.714Z,8.50
2019-04-05T14:50:08.787Z,8.70
2019-04-05T14:52:36.981Z,8.90
2019-04-05T14:55:06.021Z,9.00
2019-04-05T14:57:35.639Z,9.00
2019-04-05T15:00:07.440Z,9.30
2019-04-05T15:02:36.166Z,9.20
2019-04-05T15:05:07.050Z,10.10
2019-04-05T15:07:37.765Z,10.20
2019-04-05T15:10:09.496Z,10.20
2019-04-05T15:12:37.244Z,9.90
2019-04-05T15:15:07.623Z,10.20
2019-04-05T15:17:47.411Z,10.40
2019-04-05T15:20:08.365Z,10.10
2019-04-05T15:22:37.090Z,10.30
2019-04-05T15:25:07.803Z,10.70
2019-04-05T15:27:36.474Z,10.90
2019-04-05T15:30:07.012Z,10.30
2019-04-05T21:08:34.498Z,36.40
2019-04-05T21:11:03.320Z,36.60
2019-04-05T21:13:31.975Z,36.50
2019-04-05T21:16:00.724Z,36.60
2019-04-05T21:18:29.392Z,36.70
2019-04-05T21:20:57.973Z,36.70
2019-04-05T21:23:26.796Z,37.00
2019-04-05T21:25:55.387Z,37.10
2019-04-05T21:28:24.079Z,37.10
2019-04-05T21:30:52.659Z,37.40
2019-04-05T21:33:21.361Z,37.50
2019-04-05T21:35:50.110Z,37.50
2019-04-05T21:38:18.710Z,37.70
2019-04-05T21:40:47.355Z,37.90
2019-04-05T21:43:16.359Z,38.10
2019-04-05T21:45:44.920Z,38.10
2019-04-05T21:48:13.520Z,38.20
2019-04-05T21:50:42.138Z,38.30
2019-04-05T21:53:10.770Z,38.40
2019-04-05T21:55:39.485Z,38.60
2019-04-05T21:58:09.920Z,38.60
2019-04-05T22:00:40.710Z,38.80
2019-04-05T22:03:09.724Z,38.70
2019-04-05T22:05:38.269Z,38.60
2019-04-05T22:08:06.894Z,38.70
2019-04-05T22:10:35.845Z,39.00
2019-04-05T22:13:04.658Z,38.80
2019-04-05T22:15:33.449Z,38.90
2019-04-05T22:18:02.022Z,39.00
2019-04-05T22:20:30.686Z,38.90
2019-04-05T22:22:59.498Z,38.90
2019-04-05T22:25:28.089Z,39.00
2019-04-05T22:27:56.791Z,39.00
2019-04-05T22:30:25.426Z,39.10
2019-04-05T22:32:54.113Z,39.10
2019-04-05T22:35:22.677Z,39.20
2019-04-05T22:37:51.280Z,39.10
2019-04-05T22:40:20.043Z,39.20
2019-04-05T22:42:48.756Z,39.30
2019-04-05T22:45:17.449Z,39.30
2019-04-05T22:47:46.193Z,39.10
2019-04-05T22:50:15.131Z,39.20
2019-04-05T22:52:43.722Z,39.40
2019-04-05T22:55:12.463Z,39.70
2019-04-05T22:57:41.021Z,39.30
2019-04-05T23:00:10.568Z,39.20
2019-04-05T23:02:39.150Z,39.30
2019-04-05T23:05:08.454Z,39.40
2019-04-05T23:07:37.094Z,39.30
2019-04-05T23:10:07.717Z,39.40
2019-04-05T23:12:36.371Z,39.30
2019-04-05T23:15:08.917Z,39.50
2019-04-05T23:17:37.546Z,39.60
2019-04-05T23:20:07.343Z,39.70
2019-04-05T23:22:36.051Z,39.90
2019-04-05T23:25:07.029Z,40.00
2019-04-05T23:27:35.669Z,39.90
2019-04-05T23:30:06.475Z,39.80
2019-04-05T23:32:35.154Z,39.70
2019-04-05T23:35:04.996Z,39.70
2019-04-05T23:37:33.557Z,39.90
2019-04-05T23:40:02.209Z,40.10
2019-04-05T23:42:30.762Z,40.20
2019-04-05T23:44:59.337Z,40.10
2019-04-05T23:47:27.970Z,40.20
2019-04-05T23:49:56.522Z,40.40
2019-04-05T23:52:25.122Z,40.30
2019-04-05T23:54:53.794Z,40.30
2019-04-05T23:57:22.377Z,40.50
2019-04-05T23:59:51.024Z,40.70
